Estación Meteorológica Peña el Pijo (Robertgarden) [ 06/21/18 23:19:45 CEST ]

Fecha Hora Presion(HPa) Temp (°C) Humedad % Rocio (°C) Viento ( m/s) Direccion Lluvia 1Hora(mm) Lluvia 24H(mm) LLuvia Total(mm)
2018-Apr-30 01:01:53 1006.700 7.4 63 0.8       1.55 204.61
2018-Apr-30 02:02:00 1006.300 6.4 67 0.7       1.55 204.61
2018-Apr-30 03:04:14 1005.900 6.6 71 1.7       1.55 204.61
2018-Apr-30 04:01:43 1005.600 5.8 74 1.5       1.55 204.61
2018-Apr-30 05:01:51 1005.300 4.6 75 0.5       1.55 204.61
2018-Apr-30 06:01:45 1004.900 3.8 78 0.3       1.55 204.61
2018-Apr-30 07:01:43 1004.900 2.6 79 -0.7       1.55 204.61
2018-Apr-30 08:01:46 1005.200 4.2 81 1.2       1.03 204.61
2018-Apr-30 09:01:51 1005.000 8.7 72 3.9 1.4 NNE   1.03 204.61
2018-Apr-30 10:01:56 1004.800 10.9 57 2.7       1.03 204.61
2018-Apr-30 11:01:46 1004.700 12.8 50 2.6       1.03 204.61
2018-Apr-30 12:01:47 1004.500 16.6 41 3.3         204.61
2018-Apr-30 13:01:42 1004.500 12.1 46 0.8 2.9 NNE     204.61
2018-Apr-30 14:01:53 1004.300 11.9 45 0.3         204.61
2018-Apr-30 15:01:51 1003.900 13.9 42 1.1         204.61
2018-Apr-30 16:01:55 1003.700 13.4 41 0.4 0.5 WNW     204.61
2018-Apr-30 17:01:51 1003.500 11.6 41 -1.2         204.61
2018-Apr-30 18:01:42 1003.500 11.5 35 -3.6         204.61
2018-Apr-30 19:01:41 1003.400 10.1 41 -2.6         204.61
2018-Apr-30 20:01:41 1003.400 9.6 46 -1.5 1.7 NNW     204.61
2018-Apr-30 21:01:54 1003.800 8.9 47 -1.9         204.61
2018-Apr-30 22:01:48 1004.500 7.4 54 -1.3         204.61
2018-Apr-30 23:01:48 1005.300 6.5 61 -0.5 1.1 N     204.61

Temperatura Máxima:16°    Temperatura Mínima:
Presión Máxima:1006.700 Hpa    Presión Mínima:1003.400 Hpa


Volver